sensor_id;sensor_type;location;lat;lon;timestamp;temperature;humidity
13049;DHT22;6591;51.446;5.404;2023-04-21T00:00:03;9.60;99.60
13049;DHT22;6591;51.446;5.404;2023-04-21T00:02:34;9.50;99.90
13049;DHT22;6591;51.446;5.404;2023-04-21T00:05:07;9.70;99.80
13049;DHT22;6591;51.446;5.404;2023-04-21T00:07:37;9.50;99.90
13049;DHT22;6591;51.446;5.404;2023-04-21T00:10:06;9.50;99.90
13049;DHT22;6591;51.446;5.404;2023-04-21T00:12:34;9.50;99.90
13049;DHT22;6591;51.446;5.404;2023-04-21T00:15:02;9.50;99.90
13049;DHT22;6591;51.446;5.404;2023-04-21T00:17:29;9.50;99.90
13049;DHT22;6591;51.446;5.404;2023-04-21T00:19:56;10.60;99.90
13049;DHT22;6591;51.446;5.404;2023-04-21T00:22:24;9.50;99.90
13049;DHT22;6591;51.446;5.404;2023-04-21T00:24:51;9.50;99.90
13049;DHT22;6591;51.446;5.404;2023-04-21T00:27:18;11.50;99.90
13049;DHT22;6591;51.446;5.404;2023-04-21T00:29:45;9.50;99.90
13049;DHT22;6591;51.446;5.404;2023-04-21T00:32:12;9.50;99.90
13049;DHT22;6591;51.446;5.404;2023-04-21T00:34:39;9.50;99.90
13049;DHT22;6591;51.446;5.404;2023-04-21T00:37:06;9.50;99.90
13049;DHT22;6591;51.446;5.404;2023-04-21T00:39:33;9.50;99.90
13049;DHT22;6591;51.446;5.404;2023-04-21T00:42:00;10.20;99.90
13049;DHT22;6591;51.446;5.404;2023-04-21T00:44:27;9.50;99.90
13049;DHT22;6591;51.446;5.404;2023-04-21T00:46:57;9.40;99.90
13049;DHT22;6591;51.446;5.404;2023-04-21T00:49:25;9.50;99.90
13049;DHT22;6591;51.446;5.404;2023-04-21T00:51:53;9.40;99.90
13049;DHT22;6591;51.446;5.404;2023-04-21T00:54:23;9.40;99.90
13049;DHT22;6591;51.446;5.404;2023-04-21T00:56:53;11.40;99.90
13049;DHT22;6591;51.446;5.404;2023-04-21T00:59:20;11.00;99.90
13049;DHT22;6591;51.446;5.404;2023-04-21T01:01:47;9.40;99.90
13049;DHT22;6591;51.446;5.404;2023-04-21T01:04:14;11.10;99.90
13049;DHT22;6591;51.446;5.404;2023-04-21T01:06:42;9.40;99.90
13049;DHT22;6591;51.446;5.404;2023-04-21T01:09:09;9.40;99.90
13049;DHT22;6591;51.446;5.404;2023-04-21T01:11:38;9.40;99.90
13049;DHT22;6591;51.446;5.404;2023-04-21T01:14:06;9.40;99.90
13049;DHT22;6591;51.446;5.404;2023-04-21T01:16:33;9.40;99.90
13049;DHT22;6591;51.446;5.404;2023-04-21T01:19:00;9.40;99.90
13049;DHT22;6591;51.446;5.404;2023-04-21T01:21:28;11.80;99.90
13049;DHT22;6591;51.446;5.404;2023-04-21T01:24:04;9.40;99.90
13049;DHT22;6591;51.446;5.404;2023-04-21T01:26:31;9.40;99.90
13049;DHT22;6591;51.446;5.404;2023-04-21T01:29:00;10.60;99.90
13049;DHT22;6591;51.446;5.404;2023-04-21T01:31:27;9.40;99.90
13049;DHT22;6591;51.446;5.404;2023-04-21T01:33:54;9.40;99.90
13049;DHT22;6591;51.446;5.404;2023-04-21T01:36:21;10.80;99.90
13049;DHT22;6591;51.446;5.404;2023-04-21T01:38:51;9.40;99.90
13049;DHT22;6591;51.446;5.404;2023-04-21T01:41:18;9.40;99.90
13049;DHT22;6591;51.446;5.404;2023-04-21T01:43:45;9.40;99.90
13049;DHT22;6591;51.446;5.404;2023-04-21T01:46:12;9.40;99.90
13049;DHT22;6591;51.446;5.404;2023-04-21T01:48:39;9.40;99.90
13049;DHT22;6591;51.446;5.404;2023-04-21T01:51:06;9.40;99.90
13049;DHT22;6591;51.446;5.404;2023-04-21T01:53:33;9.40;99.90
13049;DHT22;6591;51.446;5.404;2023-04-21T01:56:00;9.90;99.90
13049;DHT22;6591;51.446;5.404;2023-04-21T01:58:29;9.40;99.90
13049;DHT22;6591;51.446;5.404;2023-04-21T02:00:56;9.30;99.90
13049;DHT22;6591;51.446;5.404;2023-04-21T02:03:23;9.30;99.90
13049;DHT22;6591;51.446;5.404;2023-04-21T02:05:51;9.30;99.90
13049;DHT22;6591;51.446;5.404;2023-04-21T02:08:18;9.30;99.90
13049;DHT22;6591;51.446;5.404;2023-04-21T02:10:44;11.10;99.90
13049;DHT22;6591;51.446;5.404;2023-04-21T02:13:12;9.30;99.90
13049;DHT22;6591;51.446;5.404;2023-04-21T02:15:39;9.30;99.90
13049;DHT22;6591;51.446;5.404;2023-04-21T02:18:06;9.30;99.90
13049;DHT22;6591;51.446;5.404;2023-04-21T02:20:34;9.60;99.90
13049;DHT22;6591;51.446;5.404;2023-04-21T02:23:01;9.30;99.90
13049;DHT22;6591;51.446;5.404;2023-04-21T02:25:28;9.30;99.90
13049;DHT22;6591;51.446;5.404;2023-04-21T02:27:55;9.30;99.90
13049;DHT22;6591;51.446;5.404;2023-04-21T02:30:25;9.30;99.90
13049;DHT22;6591;51.446;5.404;2023-04-21T02:32:53;9.30;99.90
13049;DHT22;6591;51.446;5.404;2023-04-21T02:35:20;9.30;99.90
13049;DHT22;6591;51.446;5.404;2023-04-21T02:37:49;9.30;99.90
13049;DHT22;6591;51.446;5.404;2023-04-21T02:40:16;9.30;99.90
13049;DHT22;6591;51.446;5.404;2023-04-21T02:42:43;9.30;99.90
13049;DHT22;6591;51.446;5.404;2023-04-21T02:45:10;9.30;99.90
13049;DHT22;6591;51.446;5.404;2023-04-21T02:47:37;9.30;99.90
13049;DHT22;6591;51.446;5.404;2023-04-21T02:50:05;9.30;99.90
13049;DHT22;6591;51.446;5.404;2023-04-21T02:52:36;9.30;99.90
13049;DHT22;6591;51.446;5.404;2023-04-21T02:55:04;9.30;99.90
13049;DHT22;6591;51.446;5.404;2023-04-21T02:57:31;9.30;99.90
13049;DHT22;6591;51.446;5.404;2023-04-21T02:59:59;9.30;99.90
13049;DHT22;6591;51.446;5.404;2023-04-21T03:02:26;9.10;99.90
13049;DHT22;6591;51.446;5.404;2023-04-21T03:04:53;9.30;99.90
13049;DHT22;6591;51.446;5.404;2023-04-21T03:07:22;9.20;99.90
13049;DHT22;6591;51.446;5.404;2023-04-21T03:09:49;10.80;99.90
13049;DHT22;6591;51.446;5.404;2023-04-21T03:12:16;9.90;99.90
13049;DHT22;6591;51.446;5.404;2023-04-21T03:14:43;9.10;99.90
13049;DHT22;6591;51.446;5.404;2023-04-21T03:17:10;9.10;99.90
13049;DHT22;6591;51.446;5.404;2023-04-21T03:19:37;9.10;99.90
13049;DHT22;6591;51.446;5.404;2023-04-21T03:22:04;9.10;99.90
13049;DHT22;6591;51.446;5.404;2023-04-21T03:24:33;9.30;99.90
13049;DHT22;6591;51.446;5.404;2023-04-21T03:27:00;9.00;99.90
13049;DHT22;6591;51.446;5.404;2023-04-21T03:29:28;9.00;99.90
13049;DHT22;6591;51.446;5.404;2023-04-21T03:31:55;9.00;99.90
13049;DHT22;6591;51.446;5.404;2023-04-21T03:34:24;9.00;99.90
13049;DHT22;6591;51.446;5.404;2023-04-21T03:36:51;9.00;99.90
13049;DHT22;6591;51.446;5.404;2023-04-21T03:39:18;9.00;99.90
13049;DHT22;6591;51.446;5.404;2023-04-21T03:41:48;9.00;99.90
13049;DHT22;6591;51.446;5.404;2023-04-21T03:44:15;9.00;99.90
13049;DHT22;6591;51.446;5.404;2023-04-21T03:46:42;11.30;99.90
13049;DHT22;6591;51.446;5.404;2023-04-21T03:49:09;9.20;99.90
13049;DHT22;6591;51.446;5.404;2023-04-21T03:51:36;9.00;99.90
13049;DHT22;6591;51.446;5.404;2023-04-21T03:54:03;10.70;99.90
13049;DHT22;6591;51.446;5.404;2023-04-21T03:56:30;9.00;99.90
13049;DHT22;6591;51.446;5.404;2023-04-21T03:58:57;9.10;99.90
13049;DHT22;6591;51.446;5.404;2023-04-21T04:01:24;9.10;99.90
13049;DHT22;6591;51.446;5.404;2023-04-21T04:03:51;9.20;99.90
13049;DHT22;6591;51.446;5.404;2023-04-21T04:06:18;9.20;99.90
13049;DHT22;6591;51.446;5.404;2023-04-21T04:08:45;9.20;99.90
13049;DHT22;6591;51.446;5.404;2023-04-21T04:11:12;9.70;99.90
13049;DHT22;6591;51.446;5.404;2023-04-21T04:13:40;9.30;99.90
13049;DHT22;6591;51.446;5.404;2023-04-21T04:16:07;9.30;99.90
13049;DHT22;6591;51.446;5.404;2023-04-21T04:18:34;9.30;99.90
13049;DHT22;6591;51.446;5.404;2023-04-21T04:21:05;9.50;99.90
13049;DHT22;6591;51.446;5.404;2023-04-21T04:23:35;9.50;99.90
13049;DHT22;6591;51.446;5.404;2023-04-21T04:26:05;10.40;99.90
13049;DHT22;6591;51.446;5.404;2023-04-21T04:28:32;9.50;99.90
13049;DHT22;6591;51.446;5.404;2023-04-21T04:30:59;9.60;99.90
13049;DHT22;6591;51.446;5.404;2023-04-21T04:33:26;9.60;99.90
13049;DHT22;6591;51.446;5.404;2023-04-21T04:35:53;9.60;99.90
13049;DHT22;6591;51.446;5.404;2023-04-21T04:38:20;10.50;99.90
13049;DHT22;6591;51.446;5.404;2023-04-21T04:40:55;10.20;99.90
13049;DHT22;6591;51.446;5.404;2023-04-21T04:43:27;9.60;99.90
13049;DHT22;6591;51.446;5.404;2023-04-21T04:45:54;9.60;99.90
13049;DHT22;6591;51.446;5.404;2023-04-21T04:48:22;9.70;99.90
13049;DHT22;6591;51.446;5.404;2023-04-21T04:50:50;9.90;99.90
13049;DHT22;6591;51.446;5.404;2023-04-21T04:53:17;9.70;99.90
13049;DHT22;6591;51.446;5.404;2023-04-21T04:55:44;10.00;99.90
13049;DHT22;6591;51.446;5.404;2023-04-21T04:58:13;9.70;99.90
13049;DHT22;6591;51.446;5.404;2023-04-21T05:00:40;9.70;99.90
13049;DHT22;6591;51.446;5.404;2023-04-21T05:03:07;9.70;99.90
13049;DHT22;6591;51.446;5.404;2023-04-21T05:05:34;9.70;99.90
13049;DHT22;6591;51.446;5.404;2023-04-21T05:08:01;9.70;99.90
13049;DHT22;6591;51.446;5.404;2023-04-21T05:10:28;9.70;99.90
13049;DHT22;6591;51.446;5.404;2023-04-21T05:12:55;9.80;99.90
13049;DHT22;6591;51.446;5.404;2023-04-21T05:15:22;9.80;99.90
13049;DHT22;6591;51.446;5.404;2023-04-21T05:17:49;9.80;99.90
13049;DHT22;6591;51.446;5.404;2023-04-21T05:20:16;9.80;99.90
13049;DHT22;6591;51.446;5.404;2023-04-21T05:22:43;9.80;99.90
13049;DHT22;6591;51.446;5.404;2023-04-21T05:25:11;9.90;99.90
13049;DHT22;6591;51.446;5.404;2023-04-21T05:27:41;10.00;99.90
13049;DHT22;6591;51.446;5.404;2023-04-21T05:30:09;10.00;99.90
13049;DHT22;6591;51.446;5.404;2023-04-21T05:32:37;10.00;99.90
13049;DHT22;6591;51.446;5.404;2023-04-21T05:35:04;11.00;99.90
13049;DHT22;6591;51.446;5.404;2023-04-21T05:37:32;10.10;99.90
13049;DHT22;6591;51.446;5.404;2023-04-21T05:39:59;10.10;99.90
13049;DHT22;6591;51.446;5.404;2023-04-21T05:42:26;10.30;99.90
13049;DHT22;6591;51.446;5.404;2023-04-21T05:44:53;10.20;99.90
13049;DHT22;6591;51.446;5.404;2023-04-21T05:47:20;11.90;99.90
13049;DHT22;6591;51.446;5.404;2023-04-21T05:49:50;10.20;99.90
13049;DHT22;6591;51.446;5.404;2023-04-21T05:52:19;10.20;99.90
13049;DHT22;6591;51.446;5.404;2023-04-21T05:54:49;11.10;99.90
13049;DHT22;6591;51.446;5.404;2023-04-21T05:57:16;10.20;99.90
13049;DHT22;6591;51.446;5.404;2023-04-21T05:59:43;12.30;99.90
13049;DHT22;6591;51.446;5.404;2023-04-21T06:02:11;10.20;99.90
13049;DHT22;6591;51.446;5.404;2023-04-21T06:04:38;10.20;99.90
13049;DHT22;6591;51.446;5.404;2023-04-21T06:07:09;12.00;99.90
13049;DHT22;6591;51.446;5.404;2023-04-21T06:09:39;11.80;99.90
13049;DHT22;6591;51.446;5.404;2023-04-21T06:12:07;10.30;99.90
13049;DHT22;6591;51.446;5.404;2023-04-21T06:14:34;10.30;99.90
13049;DHT22;6591;51.446;5.404;2023-04-21T06:17:01;10.40;99.90
13049;DHT22;6591;51.446;5.404;2023-04-21T06:19:28;10.40;99.90
13049;DHT22;6591;51.446;5.404;2023-04-21T06:21:56;10.60;99.90
13049;DHT22;6591;51.446;5.404;2023-04-21T06:24:23;10.50;99.90
13049;DHT22;6591;51.446;5.404;2023-04-21T06:26:51;10.60;99.90
13049;DHT22;6591;51.446;5.404;2023-04-21T06:29:19;11.00;99.90
13049;DHT22;6591;51.446;5.404;2023-04-21T06:31:46;11.40;99.90
13049;DHT22;6591;51.446;5.404;2023-04-21T06:34:14;10.80;99.90
13049;DHT22;6591;51.446;5.404;2023-04-21T06:36:41;10.90;99.90
13049;DHT22;6591;51.446;5.404;2023-04-21T06:39:08;11.00;99.90
13049;DHT22;6591;51.446;5.404;2023-04-21T06:41:35;11.70;99.90
13049;DHT22;6591;51.446;5.404;2023-04-21T06:44:02;11.10;99.90
13049;DHT22;6591;51.446;5.404;2023-04-21T06:46:29;11.50;99.90
13049;DHT22;6591;51.446;5.404;2023-04-21T06:48:57;11.20;99.90
13049;DHT22;6591;51.446;5.404;2023-04-21T06:51:23;11.40;99.90
13049;DHT22;6591;51.446;5.404;2023-04-21T06:53:50;12.30;99.90
13049;DHT22;6591;51.446;5.404;2023-04-21T06:56:17;11.60;99.90
13049;DHT22;6591;51.446;5.404;2023-04-21T06:58:44;11.70;99.90
13049;DHT22;6591;51.446;5.404;2023-04-21T07:01:12;13.40;99.90
13049;DHT22;6591;51.446;5.404;2023-04-21T07:03:39;12.00;99.90
13049;DHT22;6591;51.446;5.404;2023-04-21T07:06:07;12.20;99.90
13049;DHT22;6591;51.446;5.404;2023-04-21T07:08:34;12.30;99.90
13049;DHT22;6591;51.446;5.404;2023-04-21T07:11:01;12.50;99.90
13049;DHT22;6591;51.446;5.404;2023-04-21T07:13:28;12.60;99.90
13049;DHT22;6591;51.446;5.404;2023-04-21T07:15:55;12.80;99.90
13049;DHT22;6591;51.446;5.404;2023-04-21T07:18:22;12.90;99.90
13049;DHT22;6591;51.446;5.404;2023-04-21T07:20:50;13.10;99.90
13049;DHT22;6591;51.446;5.404;2023-04-21T07:23:17;13.20;99.90
13049;DHT22;6591;51.446;5.404;2023-04-21T07:25:44;13.30;99.90
13049;DHT22;6591;51.446;5.404;2023-04-21T07:28:11;14.30;99.90
13049;DHT22;6591;51.446;5.404;2023-04-21T07:30:40;13.80;99.90
13049;DHT22;6591;51.446;5.404;2023-04-21T07:33:08;14.20;99.90
13049;DHT22;6591;51.446;5.404;2023-04-21T07:35:35;13.70;99.90
13049;DHT22;6591;51.446;5.404;2023-04-21T07:38:02;14.80;99.90
13049;DHT22;6591;51.446;5.404;2023-04-21T07:40:29;15.30;99.90
13049;DHT22;6591;51.446;5.404;2023-04-21T07:42:56;13.90;99.90
13049;DHT22;6591;51.446;5.404;2023-04-21T07:45:24;14.00;99.90
13049;DHT22;6591;51.446;5.404;2023-04-21T07:47:51;15.10;99.90
13049;DHT22;6591;51.446;5.404;2023-04-21T07:50:20;14.10;99.90
13049;DHT22;6591;51.446;5.404;2023-04-21T07:52:47;14.20;99.90
13049;DHT22;6591;51.446;5.404;2023-04-21T07:55:14;14.70;99.90
13049;DHT22;6591;51.446;5.404;2023-04-21T07:57:41;14.50;99.90
13049;DHT22;6591;51.446;5.404;2023-04-21T08:00:09;14.80;99.90
13049;DHT22;6591;51.446;5.404;2023-04-21T08:02:40;14.90;99.90
13049;DHT22;6591;51.446;5.404;2023-04-21T08:05:07;15.20;99.90
13049;DHT22;6591;51.446;5.404;2023-04-21T08:07:35;15.30;99.90
13049;DHT22;6591;51.446;5.404;2023-04-21T08:10:02;15.40;99.90
13049;DHT22;6591;51.446;5.404;2023-04-21T08:12:30;15.50;99.90
13049;DHT22;6591;51.446;5.404;2023-04-21T08:14:57;16.70;99.90
13049;DHT22;6591;51.446;5.404;2023-04-21T08:17:24;15.70;99.90
13049;DHT22;6591;51.446;5.404;2023-04-21T08:19:51;15.80;99.90
13049;DHT22;6591;51.446;5.404;2023-04-21T08:22:18;15.80;99.90
13049;DHT22;6591;51.446;5.404;2023-04-21T08:24:46;15.90;99.90
13049;DHT22;6591;51.446;5.404;2023-04-21T08:27:12;16.00;99.90
13049;DHT22;6591;51.446;5.404;2023-04-21T08:29:40;16.00;99.90
13049;DHT22;6591;51.446;5.404;2023-04-21T08:32:06;17.10;99.90
13049;DHT22;6591;51.446;5.404;2023-04-21T08:34:34;16.10;99.90
13049;DHT22;6591;51.446;5.404;2023-04-21T08:37:01;16.20;99.90
13049;DHT22;6591;51.446;5.404;2023-04-21T08:39:28;16.30;99.90
13049;DHT22;6591;51.446;5.404;2023-04-21T08:41:57;17.40;99.90
13049;DHT22;6591;51.446;5.404;2023-04-21T08:44:25;16.60;99.90
13049;DHT22;6591;51.446;5.404;2023-04-21T08:46:55;16.80;99.90
13049;DHT22;6591;51.446;5.404;2023-04-21T08:49:23;16.80;99.90
13049;DHT22;6591;51.446;5.404;2023-04-21T08:51:54;17.00;99.80
13049;DHT22;6591;51.446;5.404;2023-04-21T08:54:21;17.10;99.70
13049;DHT22;6591;51.446;5.404;2023-04-21T08:56:48;17.20;99.30
13049;DHT22;6591;51.446;5.404;2023-04-21T08:59:15;17.20;98.60
13049;DHT22;6591;51.446;5.404;2023-04-21T09:04:59;17.40;99.30
13049;DHT22;6591;51.446;5.404;2023-04-21T09:07:32;17.60;99.50
13049;DHT22;6591;51.446;5.404;2023-04-21T09:10:05;17.70;98.10
13049;DHT22;6591;51.446;5.404;2023-04-21T09:12:33;17.90;97.70
13049;DHT22;6591;51.446;5.404;2023-04-21T09:15:04;17.90;98.10
13049;DHT22;6591;51.446;5.404;2023-04-21T09:17:31;18.00;97.80
13049;DHT22;6591;51.446;5.404;2023-04-21T09:20:20;18.90;98.10
13049;DHT22;6591;51.446;5.404;2023-04-21T09:22:48;18.30;97.60
13049;DHT22;6591;51.446;5.404;2023-04-21T09:25:20;18.30;97.90
13049;DHT22;6591;51.446;5.404;2023-04-21T09:27:47;18.40;97.60
13049;DHT22;6591;51.446;5.404;2023-04-21T09:30:18;18.60;97.30
13049;DHT22;6591;51.446;5.404;2023-04-21T09:32:45;18.70;97.20
13049;DHT22;6591;51.446;5.404;2023-04-21T09:35:13;18.90;97.40
13049;DHT22;6591;51.446;5.404;2023-04-21T09:37:42;19.00;97.10
13049;DHT22;6591;51.446;5.404;2023-04-21T09:40:13;19.10;96.80
13049;DHT22;6591;51.446;5.404;2023-04-21T09:42:43;19.30;97.10
13049;DHT22;6591;51.446;5.404;2023-04-21T09:45:11;19.50;96.50
13049;DHT22;6591;51.446;5.404;2023-04-21T09:47:43;19.60;96.70
13049;DHT22;6591;51.446;5.404;2023-04-21T09:50:15;19.80;96.90
13049;DHT22;6591;51.446;5.404;2023-04-21T09:53:02;20.80;97.40
13049;DHT22;6591;51.446;5.404;2023-04-21T09:55:33;20.50;95.10
13049;DHT22;6591;51.446;5.404;2023-04-21T09:58:01;20.50;96.20
13049;DHT22;6591;51.446;5.404;2023-04-21T10:00:32;20.70;95.90
13049;DHT22;6591;51.446;5.404;2023-04-21T10:03:05;20.90;95.00
13049;DHT22;6591;51.446;5.404;2023-04-21T10:05:38;21.00;94.20
13049;DHT22;6591;51.446;5.404;2023-04-21T10:08:08;21.00;94.40
13049;DHT22;6591;51.446;5.404;2023-04-21T10:10:37;21.20;94.20
13049;DHT22;6591;51.446;5.404;2023-04-21T10:13:12;21.30;93.60
13049;DHT22;6591;51.446;5.404;2023-04-21T10:15:42;21.30;92.00
13049;DHT22;6591;51.446;5.404;2023-04-21T10:18:22;21.30;92.60
13049;DHT22;6591;51.446;5.404;2023-04-21T10:23:45;21.40;93.60
13049;DHT22;6591;51.446;5.404;2023-04-21T10:28:58;21.70;93.30
13049;DHT22;6591;51.446;5.404;2023-04-21T10:31:52;21.70;93.40
13049;DHT22;6591;51.446;5.404;2023-04-21T10:34:34;21.90;92.50
13049;DHT22;6591;51.446;5.404;2023-04-21T10:39:45;22.30;91.60
13049;DHT22;6591;51.446;5.404;2023-04-21T10:42:23;22.30;89.90
13049;DHT22;6591;51.446;5.404;2023-04-21T10:45:13;22.30;90.70
13049;DHT22;6591;51.446;5.404;2023-04-21T10:47:46;22.30;87.00
13049;DHT22;6591;51.446;5.404;2023-04-21T10:52:45;22.00;90.00
13049;DHT22;6591;51.446;5.404;2023-04-21T10:55:27;21.90;90.90
13049;DHT22;6591;51.446;5.404;2023-04-21T10:57:55;22.10;91.50
13049;DHT22;6591;51.446;5.404;2023-04-21T11:00:24;22.10;92.00
13049;DHT22;6591;51.446;5.404;2023-04-21T11:02:56;22.30;91.80
13049;DHT22;6591;51.446;5.404;2023-04-21T11:05:33;22.50;89.50
13049;DHT22;6591;51.446;5.404;2023-04-21T11:08:12;22.60;89.10
13049;DHT22;6591;51.446;5.404;2023-04-21T11:10:55;22.60;90.10
13049;DHT22;6591;51.446;5.404;2023-04-21T11:13:25;22.60;89.40
13049;DHT22;6591;51.446;5.404;2023-04-21T11:16:04;22.60;89.50
13049;DHT22;6591;51.446;5.404;2023-04-21T11:18:41;22.60;87.70
13049;DHT22;6591;51.446;5.404;2023-04-21T11:21:12;23.60;87.90
13049;DHT22;6591;51.446;5.404;2023-04-21T11:23:53;22.60;88.60
13049;DHT22;6591;51.446;5.404;2023-04-21T11:26:34;22.70;88.20
13049;DHT22;6591;51.446;5.404;2023-04-21T11:29:05;22.90;88.60
13049;DHT22;6591;51.446;5.404;2023-04-21T11:31:36;23.00;88.20
13049;DHT22;6591;51.446;5.404;2023-04-21T11:34:05;23.10;87.70
13049;DHT22;6591;51.446;5.404;2023-04-21T11:36:38;23.20;85.50
13049;DHT22;6591;51.446;5.404;2023-04-21T11:39:11;23.10;80.80
13049;DHT22;6591;51.446;5.404;2023-04-21T11:41:47;23.20;83.20
13049;DHT22;6591;51.446;5.404;2023-04-21T11:44:37;23.30;85.20
13049;DHT22;6591;51.446;5.404;2023-04-21T11:47:20;23.40;81.70
13049;DHT22;6591;51.446;5.404;2023-04-21T11:49:55;23.50;82.80
13049;DHT22;6591;51.446;5.404;2023-04-21T11:52:30;24.00;84.80
13049;DHT22;6591;51.446;5.404;2023-04-21T11:55:11;24.00;81.30
13049;DHT22;6591;51.446;5.404;2023-04-21T11:57:45;23.40;77.20
13049;DHT22;6591;51.446;5.404;2023-04-21T12:00:13;24.10;78.90
13049;DHT22;6591;51.446;5.404;2023-04-21T12:02:42;23.90;78.40
13049;DHT22;6591;51.446;5.404;2023-04-21T12:05:11;23.80;78.20
13049;DHT22;6591;51.446;5.404;2023-04-21T12:07:44;23.70;77.40
13049;DHT22;6591;51.446;5.404;2023-04-21T12:10:16;21.70;73.40
13049;DHT22;6591;51.446;5.404;2023-04-21T12:12:45;23.30;78.00
13049;DHT22;6591;51.446;5.404;2023-04-21T12:15:17;23.10;78.40
13049;DHT22;6591;51.446;5.404;2023-04-21T12:17:49;22.90;77.30
13049;DHT22;6591;51.446;5.404;2023-04-21T12:20:19;22.70;75.20
13049;DHT22;6591;51.446;5.404;2023-04-21T12:22:49;22.50;76.10
13049;DHT22;6591;51.446;5.404;2023-04-21T12:25:16;22.20;75.70
13049;DHT22;6591;51.446;5.404;2023-04-21T12:27:48;21.90;76.90
13049;DHT22;6591;51.446;5.404;2023-04-21T12:30:17;21.70;77.30
13049;DHT22;6591;51.446;5.404;2023-04-21T12:32:44;21.60;78.40
13049;DHT22;6591;51.446;5.404;2023-04-21T12:35:13;21.50;77.90
13049;DHT22;6591;51.446;5.404;2023-04-21T12:37:40;21.40;77.20
13049;DHT22;6591;51.446;5.404;2023-04-21T12:40:07;21.20;77.30
13049;DHT22;6591;51.446;5.404;2023-04-21T12:42:35;20.30;79.20
13049;DHT22;6591;51.446;5.404;2023-04-21T12:45:04;21.10;80.30
13049;DHT22;6591;51.446;5.404;2023-04-21T12:47:32;21.10;81.40
13049;DHT22;6591;51.446;5.404;2023-04-21T12:50:00;21.90;79.80
13049;DHT22;6591;51.446;5.404;2023-04-21T12:52:27;21.60;78.60
13049;DHT22;6591;51.446;5.404;2023-04-21T12:54:54;21.20;79.30
13049;DHT22;6591;51.446;5.404;2023-04-21T12:57:21;21.20;78.30
13049;DHT22;6591;51.446;5.404;2023-04-21T12:59:48;21.20;79.10
13049;DHT22;6591;51.446;5.404;2023-04-21T13:02:15;21.40;80.40
13049;DHT22;6591;51.446;5.404;2023-04-21T13:04:42;21.40;77.60
13049;DHT22;6591;51.446;5.404;2023-04-21T13:07:09;21.50;78.40
13049;DHT22;6591;51.446;5.404;2023-04-21T13:09:37;21.50;78.70
13049;DHT22;6591;51.446;5.404;2023-04-21T13:12:05;21.60;79.40
13049;DHT22;6591;51.446;5.404;2023-04-21T13:14:32;21.70;79.00
13049;DHT22;6591;51.446;5.404;2023-04-21T13:16:59;21.80;79.40
13049;DHT22;6591;51.446;5.404;2023-04-21T13:19:26;22.00;78.70
13049;DHT22;6591;51.446;5.404;2023-04-21T13:21:55;23.00;80.60
13049;DHT22;6591;51.446;5.404;2023-04-21T13:24:22;22.60;80.70
13049;DHT22;6591;51.446;5.404;2023-04-21T13:26:51;22.90;81.90
13049;DHT22;6591;51.446;5.404;2023-04-21T13:29:18;23.40;81.40
13049;DHT22;6591;51.446;5.404;2023-04-21T13:31:46;23.80;75.70
13049;DHT22;6591;51.446;5.404;2023-04-21T13:34:13;24.10;74.90
13049;DHT22;6591;51.446;5.404;2023-04-21T13:36:40;24.30;74.60
13049;DHT22;6591;51.446;5.404;2023-04-21T13:39:08;23.00;72.80
13049;DHT22;6591;51.446;5.404;2023-04-21T13:41:35;24.50;73.70
13049;DHT22;6591;51.446;5.404;2023-04-21T13:44:02;24.50;72.70
13049;DHT22;6591;51.446;5.404;2023-04-21T13:46:29;24.50;71.70
13049;DHT22;6591;51.446;5.404;2023-04-21T13:48:56;24.50;71.90
13049;DHT22;6591;51.446;5.404;2023-04-21T13:51:25;24.40;71.90
13049;DHT22;6591;51.446;5.404;2023-04-21T13:53:52;24.30;71.70
13049;DHT22;6591;51.446;5.404;2023-04-21T13:56:19;24.10;70.90
13049;DHT22;6591;51.446;5.404;2023-04-21T13:58:46;23.90;70.30
13049;DHT22;6591;51.446;5.404;2023-04-21T14:01:13;23.70;69.80
13049;DHT22;6591;51.446;5.404;2023-04-21T14:03:40;23.50;70.90
13049;DHT22;6591;51.446;5.404;2023-04-21T14:06:08;23.60;71.70
13049;DHT22;6591;51.446;5.404;2023-04-21T14:08:35;23.30;72.50
13049;DHT22;6591;51.446;5.404;2023-04-21T14:11:02;23.20;73.20
13049;DHT22;6591;51.446;5.404;2023-04-21T14:13:30;23.20;73.80
13049;DHT22;6591;51.446;5.404;2023-04-21T14:16:10;23.30;74.30
13049;DHT22;6591;51.446;5.404;2023-04-21T14:18:37;22.30;74.10
13049;DHT22;6591;51.446;5.404;2023-04-21T14:21:10;23.60;74.50
13049;DHT22;6591;51.446;5.404;2023-04-21T14:23:37;23.80;73.00
13049;DHT22;6591;51.446;5.404;2023-04-21T14:26:04;23.80;74.20
13049;DHT22;6591;51.446;5.404;2023-04-21T14:28:32;24.00;73.90
13049;DHT22;6591;51.446;5.404;2023-04-21T14:30:59;24.20;74.50
13049;DHT22;6591;51.446;5.404;2023-04-21T14:33:27;24.50;73.10
13049;DHT22;6591;51.446;5.404;2023-04-21T14:35:55;24.70;73.10
13049;DHT22;6591;51.446;5.404;2023-04-21T14:38:22;25.00;71.40
13049;DHT22;6591;51.446;5.404;2023-04-21T14:40:50;25.20;70.20
13049;DHT22;6591;51.446;5.404;2023-04-21T14:43:20;25.20;69.40
13049;DHT22;6591;51.446;5.404;2023-04-21T14:45:49;25.20;69.00
13049;DHT22;6591;51.446;5.404;2023-04-21T14:48:16;25.10;69.60
13049;DHT22;6591;51.446;5.404;2023-04-21T14:50:44;25.00;70.30
13049;DHT22;6591;51.446;5.404;2023-04-21T14:53:11;25.00;69.20
13049;DHT22;6591;51.446;5.404;2023-04-21T14:55:38;24.90;69.60
13049;DHT22;6591;51.446;5.404;2023-04-21T14:58:05;24.80;68.80
13049;DHT22;6591;51.446;5.404;2023-04-21T15:00:33;24.70;68.70
13049;DHT22;6591;51.446;5.404;2023-04-21T15:03:02;24.70;70.30
13049;DHT22;6591;51.446;5.404;2023-04-21T15:05:29;24.70;70.80
13049;DHT22;6591;51.446;5.404;2023-04-21T15:07:56;24.80;70.60
13049;DHT22;6591;51.446;5.404;2023-04-21T15:10:23;24.80;69.40
13049;DHT22;6591;51.446;5.404;2023-04-21T15:12:50;24.80;69.20
13049;DHT22;6591;51.446;5.404;2023-04-21T15:15:18;24.70;68.20
13049;DHT22;6591;51.446;5.404;2023-04-21T15:17:45;24.50;69.20
13049;DHT22;6591;51.446;5.404;2023-04-21T15:20:12;24.60;70.30
13049;DHT22;6591;51.446;5.404;2023-04-21T15:22:40;24.60;70.40
13049;DHT22;6591;51.446;5.404;2023-04-21T15:25:07;24.60;69.80
13049;DHT22;6591;51.446;5.404;2023-04-21T15:27:35;24.60;69.80
13049;DHT22;6591;51.446;5.404;2023-04-21T15:30:04;24.60;70.70
13049;DHT22;6591;51.446;5.404;2023-04-21T15:32:32;24.60;70.30
13049;DHT22;6591;51.446;5.404;2023-04-21T15:34:59;24.50;70.30
13049;DHT22;6591;51.446;5.404;2023-04-21T15:37:27;24.50;70.50
13049;DHT22;6591;51.446;5.404;2023-04-21T15:39:54;24.40;70.40
13049;DHT22;6591;51.446;5.404;2023-04-21T15:42:21;24.50;69.50
13049;DHT22;6591;51.446;5.404;2023-04-21T15:44:49;24.30;69.10
13049;DHT22;6591;51.446;5.404;2023-04-21T15:47:19;24.20;69.00
13049;DHT22;6591;51.446;5.404;2023-04-21T15:49:49;24.10;68.10
13049;DHT22;6591;51.446;5.404;2023-04-21T15:52:16;23.90;68.00
13049;DHT22;6591;51.446;5.404;2023-04-21T15:54:44;23.60;68.40
13049;DHT22;6591;51.446;5.404;2023-04-21T15:57:11;23.40;69.20
13049;DHT22;6591;51.446;5.404;2023-04-21T15:59:39;23.20;69.50
13049;DHT22;6591;51.446;5.404;2023-04-21T16:02:06;23.60;70.40
13049;DHT22;6591;51.446;5.404;2023-04-21T16:04:33;22.90;70.70
13049;DHT22;6591;51.446;5.404;2023-04-21T16:07:02;22.80;71.30
13049;DHT22;6591;51.446;5.404;2023-04-21T16:09:29;22.60;71.50
13049;DHT22;6591;51.446;5.404;2023-04-21T16:11:56;22.60;71.50